sensor_id;sensor_type;location;lat;lon;timestamp;temperature;humidity
1680;DHT22;838;51.794;12.258;2024-01-30T00:01:17;4.90;24.00
1680;DHT22;838;51.794;12.258;2024-01-30T00:03:43;4.90;24.00
1680;DHT22;838;51.794;12.258;2024-01-30T00:06:09;4.90;24.40
1680;DHT22;838;51.794;12.258;2024-01-30T00:08:34;5.00;23.80
1680;DHT22;838;51.794;12.258;2024-01-30T00:11:00;4.90;23.20
1680;DHT22;838;51.794;12.258;2024-01-30T00:13:26;4.90;22.10
1680;DHT22;838;51.794;12.258;2024-01-30T00:15:52;4.80;22.00
1680;DHT22;838;51.794;12.258;2024-01-30T00:18:18;4.80;22.40
1680;DHT22;838;51.794;12.258;2024-01-30T00:20:44;4.90;20.60
1680;DHT22;838;51.794;12.258;2024-01-30T00:23:10;4.90;20.60
1680;DHT22;838;51.794;12.258;2024-01-30T00:25:36;4.90;20.20
1680;DHT22;838;51.794;12.258;2024-01-30T00:28:01;4.90;19.80
1680;DHT22;838;51.794;12.258;2024-01-30T00:30:27;5.00;18.70
1680;DHT22;838;51.794;12.258;2024-01-30T00:32:54;4.90;19.10
1680;DHT22;838;51.794;12.258;2024-01-30T00:35:19;4.60;21.20
1680;DHT22;838;51.794;12.258;2024-01-30T00:37:47;4.20;23.30
1680;DHT22;838;51.794;12.258;2024-01-30T00:40:13;4.00;26.40
1680;DHT22;838;51.794;12.258;2024-01-30T00:42:46;3.80;28.30
1680;DHT22;838;51.794;12.258;2024-01-30T00:45:13;3.60;30.60
1680;DHT22;838;51.794;12.258;2024-01-30T00:47:39;3.50;32.50
1680;DHT22;838;51.794;12.258;2024-01-30T00:50:05;3.40;34.90
1680;DHT22;838;51.794;12.258;2024-01-30T00:52:31;3.50;34.90
1680;DHT22;838;51.794;12.258;2024-01-30T00:54:59;3.50;34.90
1680;DHT22;838;51.794;12.258;2024-01-30T00:57:24;3.60;35.10
1680;DHT22;838;51.794;12.258;2024-01-30T00:59:50;3.70;35.00
1680;DHT22;838;51.794;12.258;2024-01-30T01:02:16;3.80;34.50
1680;DHT22;838;51.794;12.258;2024-01-30T01:04:43;3.90;33.80
1680;DHT22;838;51.794;12.258;2024-01-30T01:07:10;3.90;33.50
1680;DHT22;838;51.794;12.258;2024-01-30T01:09:36;4.10;32.00
1680;DHT22;838;51.794;12.258;2024-01-30T01:12:02;4.20;31.30
1680;DHT22;838;51.794;12.258;2024-01-30T01:14:28;4.30;30.90
1680;DHT22;838;51.794;12.258;2024-01-30T01:16:54;4.40;30.30
1680;DHT22;838;51.794;12.258;2024-01-30T01:19:19;4.50;29.90
1680;DHT22;838;51.794;12.258;2024-01-30T01:21:45;4.60;27.60
1680;DHT22;838;51.794;12.258;2024-01-30T01:24:11;4.60;27.00
1680;DHT22;838;51.794;12.258;2024-01-30T01:26:37;4.60;26.20
1680;DHT22;838;51.794;12.258;2024-01-30T01:29:03;4.60;27.00
1680;DHT22;838;51.794;12.258;2024-01-30T01:31:35;4.80;25.70
1680;DHT22;838;51.794;12.258;2024-01-30T01:34:05;4.80;24.80
1680;DHT22;838;51.794;12.258;2024-01-30T01:36:31;4.70;24.90
1680;DHT22;838;51.794;12.258;2024-01-30T01:38:57;4.60;25.80
1680;DHT22;838;51.794;12.258;2024-01-30T01:41:22;4.60;26.20
1680;DHT22;838;51.794;12.258;2024-01-30T01:43:48;4.50;27.20
1680;DHT22;838;51.794;12.258;2024-01-30T01:46:14;4.50;27.50
1680;DHT22;838;51.794;12.258;2024-01-30T01:48:41;4.50;27.50
1680;DHT22;838;51.794;12.258;2024-01-30T01:51:09;4.50;27.00
1680;DHT22;838;51.794;12.258;2024-01-30T01:53:35;4.50;26.90
1680;DHT22;838;51.794;12.258;2024-01-30T01:56:00;4.40;27.10
1680;DHT22;838;51.794;12.258;2024-01-30T01:58:27;4.50;27.20
1680;DHT22;838;51.794;12.258;2024-01-30T02:00:56;4.50;27.00
1680;DHT22;838;51.794;12.258;2024-01-30T02:03:22;4.50;28.50
1680;DHT22;838;51.794;12.258;2024-01-30T02:05:48;4.60;27.30
1680;DHT22;838;51.794;12.258;2024-01-30T02:08:14;4.70;27.10
1680;DHT22;838;51.794;12.258;2024-01-30T02:10:40;4.90;24.60
1680;DHT22;838;51.794;12.258;2024-01-30T02:13:06;5.00;22.90
1680;DHT22;838;51.794;12.258;2024-01-30T02:15:32;5.00;23.10
1680;DHT22;838;51.794;12.258;2024-01-30T02:17:57;4.90;23.20
1680;DHT22;838;51.794;12.258;2024-01-30T02:20:28;4.80;23.30
1680;DHT22;838;51.794;12.258;2024-01-30T02:22:56;4.80;23.70
1680;DHT22;838;51.794;12.258;2024-01-30T02:25:31;4.90;23.20
1680;DHT22;838;51.794;12.258;2024-01-30T02:27:57;4.90;23.10
1680;DHT22;838;51.794;12.258;2024-01-30T02:30:22;4.90;23.20
1680;DHT22;838;51.794;12.258;2024-01-30T02:32:48;5.00;21.80
1680;DHT22;838;51.794;12.258;2024-01-30T02:35:14;5.00;22.60
1680;DHT22;838;51.794;12.258;2024-01-30T02:37:39;4.80;22.30
1680;DHT22;838;51.794;12.258;2024-01-30T02:40:06;4.60;24.60
1680;DHT22;838;51.794;12.258;2024-01-30T02:42:32;4.40;25.70
1680;DHT22;838;51.794;12.258;2024-01-30T02:44:57;4.30;26.80
1680;DHT22;838;51.794;12.258;2024-01-30T02:47:23;4.30;26.90
1680;DHT22;838;51.794;12.258;2024-01-30T02:49:49;4.40;26.90
1680;DHT22;838;51.794;12.258;2024-01-30T02:52:14;4.40;26.70
1680;DHT22;838;51.794;12.258;2024-01-30T02:54:40;4.60;25.00
1680;DHT22;838;51.794;12.258;2024-01-30T02:57:06;4.80;23.70
1680;DHT22;838;51.794;12.258;2024-01-30T02:59:31;4.90;22.40
1680;DHT22;838;51.794;12.258;2024-01-30T03:01:58;4.70;20.70
1680;DHT22;838;51.794;12.258;2024-01-30T03:04:24;4.60;21.40
1680;DHT22;838;51.794;12.258;2024-01-30T03:06:50;4.40;24.30
1680;DHT22;838;51.794;12.258;2024-01-30T03:09:19;4.20;25.80
1680;DHT22;838;51.794;12.258;2024-01-30T03:11:44;4.00;27.20
1680;DHT22;838;51.794;12.258;2024-01-30T03:14:10;3.90;29.20
1680;DHT22;838;51.794;12.258;2024-01-30T03:16:37;3.90;29.90
1680;DHT22;838;51.794;12.258;2024-01-30T03:19:04;3.80;31.10
1680;DHT22;838;51.794;12.258;2024-01-30T03:21:30;3.80;31.30
1680;DHT22;838;51.794;12.258;2024-01-30T03:23:56;4.00;30.50
1680;DHT22;838;51.794;12.258;2024-01-30T03:26:21;4.00;29.90
1680;DHT22;838;51.794;12.258;2024-01-30T03:28:47;4.00;28.80
1680;DHT22;838;51.794;12.258;2024-01-30T03:31:15;4.00;29.00
1680;DHT22;838;51.794;12.258;2024-01-30T03:33:41;4.00;29.30
1680;DHT22;838;51.794;12.258;2024-01-30T03:36:08;4.00;30.00
1680;DHT22;838;51.794;12.258;2024-01-30T03:38:34;4.00;29.90
1680;DHT22;838;51.794;12.258;2024-01-30T03:41:00;4.10;29.60
1680;DHT22;838;51.794;12.258;2024-01-30T03:43:26;4.20;28.20
1680;DHT22;838;51.794;12.258;2024-01-30T03:45:52;4.30;27.40
1680;DHT22;838;51.794;12.258;2024-01-30T03:48:18;4.30;26.30
1680;DHT22;838;51.794;12.258;2024-01-30T03:50:44;4.20;26.70
1680;DHT22;838;51.794;12.258;2024-01-30T03:53:10;4.10;27.30
1680;DHT22;838;51.794;12.258;2024-01-30T03:55:36;4.20;27.30
1680;DHT22;838;51.794;12.258;2024-01-30T03:58:01;4.20;26.20
1680;DHT22;838;51.794;12.258;2024-01-30T04:00:28;4.30;25.60
1680;DHT22;838;51.794;12.258;2024-01-30T04:02:53;4.30;24.70
1680;DHT22;838;51.794;12.258;2024-01-30T04:05:19;4.40;24.60
1680;DHT22;838;51.794;12.258;2024-01-30T04:07:45;4.40;23.90
1680;DHT22;838;51.794;12.258;2024-01-30T04:10:10;4.40;23.70
1680;DHT22;838;51.794;12.258;2024-01-30T04:12:36;4.50;23.00
1680;DHT22;838;51.794;12.258;2024-01-30T04:15:02;4.60;23.20
1680;DHT22;838;51.794;12.258;2024-01-30T04:17:29;4.50;23.20
1680;DHT22;838;51.794;12.258;2024-01-30T04:19:55;4.50;23.70
1680;DHT22;838;51.794;12.258;2024-01-30T04:22:21;4.60;23.20
1680;DHT22;838;51.794;12.258;2024-01-30T04:24:46;4.20;23.10
1680;DHT22;838;51.794;12.258;2024-01-30T04:27:12;4.60;22.90
1680;DHT22;838;51.794;12.258;2024-01-30T04:29:38;4.50;23.30
1680;DHT22;838;51.794;12.258;2024-01-30T04:32:04;4.40;24.40
1680;DHT22;838;51.794;12.258;2024-01-30T04:34:30;4.60;24.20
1680;DHT22;838;51.794;12.258;2024-01-30T04:36:56;4.70;23.10
1680;DHT22;838;51.794;12.258;2024-01-30T04:39:21;5.00;21.30
1680;DHT22;838;51.794;12.258;2024-01-30T04:41:47;5.00;20.80
1680;DHT22;838;51.794;12.258;2024-01-30T04:44:14;5.00;19.60
1680;DHT22;838;51.794;12.258;2024-01-30T04:46:40;5.20;19.60
1680;DHT22;838;51.794;12.258;2024-01-30T04:49:05;5.30;18.30
1680;DHT22;838;51.794;12.258;2024-01-30T04:51:33;5.60;16.80
1680;DHT22;838;51.794;12.258;2024-01-30T04:53:59;5.80;14.10
1680;DHT22;838;51.794;12.258;2024-01-30T04:56:24;5.90;13.80
1680;DHT22;838;51.794;12.258;2024-01-30T04:58:50;5.90;12.90
1680;DHT22;838;51.794;12.258;2024-01-30T05:01:16;5.90;12.60
1680;DHT22;838;51.794;12.258;2024-01-30T05:03:42;5.90;12.40
1680;DHT22;838;51.794;12.258;2024-01-30T05:06:08;5.90;12.70
1680;DHT22;838;51.794;12.258;2024-01-30T05:08:34;5.80;12.60
1680;DHT22;838;51.794;12.258;2024-01-30T05:11:02;5.80;12.80
1680;DHT22;838;51.794;12.258;2024-01-30T05:13:30;5.60;14.70
1680;DHT22;838;51.794;12.258;2024-01-30T05:15:56;5.50;15.10
1680;DHT22;838;51.794;12.258;2024-01-30T05:18:22;5.40;15.40
1680;DHT22;838;51.794;12.258;2024-01-30T05:20:51;5.30;15.60
1680;DHT22;838;51.794;12.258;2024-01-30T05:23:17;5.20;17.40
1680;DHT22;838;51.794;12.258;2024-01-30T05:25:42;5.00;17.90
1680;DHT22;838;51.794;12.258;2024-01-30T05:28:08;4.90;18.90
1680;DHT22;838;51.794;12.258;2024-01-30T05:30:34;4.90;18.80
1680;DHT22;838;51.794;12.258;2024-01-30T05:32:59;4.70;19.00
1680;DHT22;838;51.794;12.258;2024-01-30T05:35:25;4.50;21.40
1680;DHT22;838;51.794;12.258;2024-01-30T05:37:51;4.40;22.20
1680;DHT22;838;51.794;12.258;2024-01-30T05:40:17;4.30;22.30
1680;DHT22;838;51.794;12.258;2024-01-30T05:42:42;4.10;23.80
1680;DHT22;838;51.794;12.258;2024-01-30T05:45:08;3.90;25.40
1680;DHT22;838;51.794;12.258;2024-01-30T05:47:35;3.80;27.30
1680;DHT22;838;51.794;12.258;2024-01-30T05:50:01;4.00;27.90
1680;DHT22;838;51.794;12.258;2024-01-30T05:52:26;4.30;26.30
1680;DHT22;838;51.794;12.258;2024-01-30T05:54:52;4.70;22.40
1680;DHT22;838;51.794;12.258;2024-01-30T05:57:18;5.00;19.10
1680;DHT22;838;51.794;12.258;2024-01-30T05:59:44;5.20;16.60
1680;DHT22;838;51.794;12.258;2024-01-30T06:02:13;5.10;16.70
1680;DHT22;838;51.794;12.258;2024-01-30T06:04:39;5.10;15.90
1680;DHT22;838;51.794;12.258;2024-01-30T06:07:05;5.20;15.30
1680;DHT22;838;51.794;12.258;2024-01-30T06:09:32;5.20;13.40
1680;DHT22;838;51.794;12.258;2024-01-30T06:11:58;5.10;17.00
1680;DHT22;838;51.794;12.258;2024-01-30T06:14:23;5.10;14.40
1680;DHT22;838;51.794;12.258;2024-01-30T06:16:49;4.90;15.30
1680;DHT22;838;51.794;12.258;2024-01-30T06:19:15;4.40;17.40
1680;DHT22;838;51.794;12.258;2024-01-30T06:21:41;3.70;22.10
1680;DHT22;838;51.794;12.258;2024-01-30T06:24:07;3.30;27.70
1680;DHT22;838;51.794;12.258;2024-01-30T06:26:33;3.20;30.00
1680;DHT22;838;51.794;12.258;2024-01-30T06:28:59;3.30;30.80
1680;DHT22;838;51.794;12.258;2024-01-30T06:31:25;3.20;30.50
1680;DHT22;838;51.794;12.258;2024-01-30T06:33:51;3.10;31.60
1680;DHT22;838;51.794;12.258;2024-01-30T06:36:16;3.00;32.60
1680;DHT22;838;51.794;12.258;2024-01-30T06:38:42;3.10;34.50
1680;DHT22;838;51.794;12.258;2024-01-30T06:41:08;3.20;33.20
1680;DHT22;838;51.794;12.258;2024-01-30T06:43:33;3.30;31.30
1680;DHT22;838;51.794;12.258;2024-01-30T06:45:59;3.40;30.60
1680;DHT22;838;51.794;12.258;2024-01-30T06:48:25;3.50;30.60
1680;DHT22;838;51.794;12.258;2024-01-30T06:50:53;3.80;28.80
1680;DHT22;838;51.794;12.258;2024-01-30T06:53:20;3.90;27.10
1680;DHT22;838;51.794;12.258;2024-01-30T06:55:45;4.00;26.40
1680;DHT22;838;51.794;12.258;2024-01-30T06:58:11;4.00;25.30
1680;DHT22;838;51.794;12.258;2024-01-30T07:00:37;4.00;24.40
1680;DHT22;838;51.794;12.258;2024-01-30T07:03:03;4.00;23.90
1680;DHT22;838;51.794;12.258;2024-01-30T07:05:29;3.90;25.10
1680;DHT22;838;51.794;12.258;2024-01-30T07:07:54;3.90;25.80
1680;DHT22;838;51.794;12.258;2024-01-30T07:10:20;4.00;25.10
1680;DHT22;838;51.794;12.258;2024-01-30T07:12:46;4.10;24.20
1680;DHT22;838;51.794;12.258;2024-01-30T07:15:12;4.20;23.50
1680;DHT22;838;51.794;12.258;2024-01-30T07:17:40;4.40;21.50
1680;DHT22;838;51.794;12.258;2024-01-30T07:20:06;4.40;20.30
1680;DHT22;838;51.794;12.258;2024-01-30T07:22:33;4.30;20.20
1680;DHT22;838;51.794;12.258;2024-01-30T07:24:59;4.20;22.00
1680;DHT22;838;51.794;12.258;2024-01-30T07:27:27;4.10;22.20
1680;DHT22;838;51.794;12.258;2024-01-30T07:29:53;4.00;23.50
1680;DHT22;838;51.794;12.258;2024-01-30T07:32:19;3.90;24.30
1680;DHT22;838;51.794;12.258;2024-01-30T07:34:44;3.90;24.60
1680;DHT22;838;51.794;12.258;2024-01-30T07:37:10;3.80;25.20
1680;DHT22;838;51.794;12.258;2024-01-30T07:39:38;3.90;25.00
1680;DHT22;838;51.794;12.258;2024-01-30T07:42:04;4.10;24.50
1680;DHT22;838;51.794;12.258;2024-01-30T07:44:30;4.30;23.00
1680;DHT22;838;51.794;12.258;2024-01-30T07:46:55;4.50;20.10
1680;DHT22;838;51.794;12.258;2024-01-30T07:49:22;4.60;18.80
1680;DHT22;838;51.794;12.258;2024-01-30T07:51:48;4.60;18.30
1680;DHT22;838;51.794;12.258;2024-01-30T07:54:14;4.70;17.10
1680;DHT22;838;51.794;12.258;2024-01-30T07:56:39;4.60;17.40
1680;DHT22;838;51.794;12.258;2024-01-30T07:59:05;4.50;18.00
1680;DHT22;838;51.794;12.258;2024-01-30T08:01:31;4.60;17.20
1680;DHT22;838;51.794;12.258;2024-01-30T08:03:56;4.50;17.50
1680;DHT22;838;51.794;12.258;2024-01-30T08:06:22;4.60;17.50
1680;DHT22;838;51.794;12.258;2024-01-30T08:08:48;4.90;15.40
1680;DHT22;838;51.794;12.258;2024-01-30T08:11:13;5.00;14.30
1680;DHT22;838;51.794;12.258;2024-01-30T08:13:42;5.10;14.20
1680;DHT22;838;51.794;12.258;2024-01-30T08:16:08;5.30;11.70
1680;DHT22;838;51.794;12.258;2024-01-30T08:18:33;5.30;10.80
1680;DHT22;838;51.794;12.258;2024-01-30T08:20:59;5.20;11.40
1680;DHT22;838;51.794;12.258;2024-01-30T08:23:25;5.20;11.30
1680;DHT22;838;51.794;12.258;2024-01-30T08:25:51;5.30;11.40
1680;DHT22;838;51.794;12.258;2024-01-30T08:28:16;5.30;11.00
1680;DHT22;838;51.794;12.258;2024-01-30T08:30:42;5.30;11.60
1680;DHT22;838;51.794;12.258;2024-01-30T08:33:08;5.60;10.00
1680;DHT22;838;51.794;12.258;2024-01-30T08:35:33;5.60;7.50
1680;DHT22;838;51.794;12.258;2024-01-30T08:37:59;5.60;8.60
1680;DHT22;838;51.794;12.258;2024-01-30T08:40:25;5.90;6.20
1680;DHT22;838;51.794;12.258;2024-01-30T08:42:51;5.90;4.30
1680;DHT22;838;51.794;12.258;2024-01-30T08:45:16;5.80;4.70
1680;DHT22;838;51.794;12.258;2024-01-30T08:47:42;5.90;5.20
1680;DHT22;838;51.794;12.258;2024-01-30T08:50:08;5.70;6.60
1680;DHT22;838;51.794;12.258;2024-01-30T08:52:34;5.70;5.80
1680;DHT22;838;51.794;12.258;2024-01-30T08:55:00;5.70;6.00
1680;DHT22;838;51.794;12.258;2024-01-30T08:57:26;5.90;5.70
1680;DHT22;838;51.794;12.258;2024-01-30T08:59:54;5.90;5.60
1680;DHT22;838;51.794;12.258;2024-01-30T09:02:20;5.90;3.70
1680;DHT22;838;51.794;12.258;2024-01-30T09:04:46;6.00;4.30
1680;DHT22;838;51.794;12.258;2024-01-30T09:07:12;6.10;3.80
1680;DHT22;838;51.794;12.258;2024-01-30T09:09:39;6.20;1.60
1680;DHT22;838;51.794;12.258;2024-01-30T09:12:08;6.10;2.40
1680;DHT22;838;51.794;12.258;2024-01-30T09:14:37;6.20;2.80
1680;DHT22;838;51.794;12.258;2024-01-30T09:17:03;6.40;1.80
1680;DHT22;838;51.794;12.258;2024-01-30T09:19:30;6.60;1.00
1680;DHT22;838;51.794;12.258;2024-01-30T09:21:56;6.60;1.00
1680;DHT22;838;51.794;12.258;2024-01-30T09:24:21;6.70;1.00
1680;DHT22;838;51.794;12.258;2024-01-30T09:26:47;6.70;1.00
1680;DHT22;838;51.794;12.258;2024-01-30T09:29:13;6.90;1.00
1680;DHT22;838;51.794;12.258;2024-01-30T09:31:38;7.00;1.00
1680;DHT22;838;51.794;12.258;2024-01-30T09:34:04;7.00;1.00
1680;DHT22;838;51.794;12.258;2024-01-30T09:36:31;7.10;1.00
1680;DHT22;838;51.794;12.258;2024-01-30T09:38:57;7.30;1.00
1680;DHT22;838;51.794;12.258;2024-01-30T09:41:24;7.30;1.00
1680;DHT22;838;51.794;12.258;2024-01-30T09:43:50;7.30;1.00
1680;DHT22;838;51.794;12.258;2024-01-30T09:46:17;7.40;1.00
1680;DHT22;838;51.794;12.258;2024-01-30T09:48:49;7.40;1.00
1680;DHT22;838;51.794;12.258;2024-01-30T09:51:15;7.50;1.00
1680;DHT22;838;51.794;12.258;2024-01-30T09:53:43;7.60;1.00
1680;DHT22;838;51.794;12.258;2024-01-30T09:56:12;7.50;1.00
1680;DHT22;838;51.794;12.258;2024-01-30T09:58:38;7.60;1.00
1680;DHT22;838;51.794;12.258;2024-01-30T10:01:05;7.70;1.00
1680;DHT22;838;51.794;12.258;2024-01-30T10:03:31;7.80;1.00
1680;DHT22;838;51.794;12.258;2024-01-30T10:05:57;7.90;1.00
1680;DHT22;838;51.794;12.258;2024-01-30T10:08:23;8.00;1.00
1680;DHT22;838;51.794;12.258;2024-01-30T10:10:50;8.10;1.00
1680;DHT22;838;51.794;12.258;2024-01-30T10:13:16;8.20;1.00
1680;DHT22;838;51.794;12.258;2024-01-30T10:15:42;8.30;1.00
1680;DHT22;838;51.794;12.258;2024-01-30T10:18:11;8.60;1.00
1680;DHT22;838;51.794;12.258;2024-01-30T10:20:37;8.60;1.00
1680;DHT22;838;51.794;12.258;2024-01-30T10:23:03;8.60;1.00
1680;DHT22;838;51.794;12.258;2024-01-30T10:25:31;8.20;1.00
1680;DHT22;838;51.794;12.258;2024-01-30T10:27:58;8.30;1.00
1680;DHT22;838;51.794;12.258;2024-01-30T10:30:24;8.40;1.00
1680;DHT22;838;51.794;12.258;2024-01-30T10:32:50;8.50;1.00
1680;DHT22;838;51.794;12.258;2024-01-30T10:35:17;8.60;1.00
1680;DHT22;838;51.794;12.258;2024-01-30T10:37:52;8.60;1.00
1680;DHT22;838;51.794;12.258;2024-01-30T10:40:21;8.80;1.00
1680;DHT22;838;51.794;12.258;2024-01-30T10:42:53;9.00;1.00
1680;DHT22;838;51.794;12.258;2024-01-30T10:45:22;9.20;1.00
1680;DHT22;838;51.794;12.258;2024-01-30T10:47:54;9.40;1.00
1680;DHT22;838;51.794;12.258;2024-01-30T10:50:24;9.40;1.00
1680;DHT22;838;51.794;12.258;2024-01-30T10:52:50;9.50;1.00
1680;DHT22;838;51.794;12.258;2024-01-30T10:55:16;9.60;1.00
1680;DHT22;838;51.794;12.258;2024-01-30T10:57:44;9.80;1.00
1680;DHT22;838;51.794;12.258;2024-01-30T11:00:14;10.10;1.00
1680;DHT22;838;51.794;12.258;2024-01-30T11:02:45;10.30;1.00
1680;DHT22;838;51.794;12.258;2024-01-30T11:05:12;10.40;1.00
1680;DHT22;838;51.794;12.258;2024-01-30T11:07:39;10.40;1.00
1680;DHT22;838;51.794;12.258;2024-01-30T11:10:07;10.10;1.00
1680;DHT22;838;51.794;12.258;2024-01-30T11:12:39;10.10;1.00
1680;DHT22;838;51.794;12.258;2024-01-30T11:15:18;10.20;1.00
1680;DHT22;838;51.794;12.258;2024-01-30T11:17:53;10.20;1.00
1680;DHT22;838;51.794;12.258;2024-01-30T11:20:25;10.40;1.00
1680;DHT22;838;51.794;12.258;2024-01-30T11:22:52;10.30;1.00
1680;DHT22;838;51.794;12.258;2024-01-30T11:25:20;10.30;1.00
1680;DHT22;838;51.794;12.258;2024-01-30T11:27:47;10.20;1.00
1680;DHT22;838;51.794;12.258;2024-01-30T11:30:28;10.30;1.00
1680;DHT22;838;51.794;12.258;2024-01-30T11:33:05;10.30;1.00
1680;DHT22;838;51.794;12.258;2024-01-30T11:35:38;10.50;1.00
1680;DHT22;838;51.794;12.258;2024-01-30T11:38:08;10.30;1.00
1680;DHT22;838;51.794;12.258;2024-01-30T11:40:35;10.40;1.00
1680;DHT22;838;51.794;12.258;2024-01-30T11:43:02;10.50;1.00
1680;DHT22;838;51.794;12.258;2024-01-30T11:45:30;10.40;1.00
1680;DHT22;838;51.794;12.258;2024-01-30T11:47:56;10.40;1.00
1680;DHT22;838;51.794;12.258;2024-01-30T11:50:23;10.40;1.00
1680;DHT22;838;51.794;12.258;2024-01-30T11:52:49;10.30;1.00
1680;DHT22;838;51.794;12.258;2024-01-30T11:55:15;10.60;1.00
1680;DHT22;838;51.794;12.258;2024-01-30T11:57:41;10.80;1.00
1680;DHT22;838;51.794;12.258;2024-01-30T12:00:17;11.10;1.00
1680;DHT22;838;51.794;12.258;2024-01-30T12:02:44;11.10;1.00
1680;DHT22;838;51.794;12.258;2024-01-30T12:05:14;11.10;1.00
1680;DHT22;838;51.794;12.258;2024-01-30T12:07:40;11.20;1.00
1680;DHT22;838;51.794;12.258;2024-01-30T12:10:06;11.20;1.00
1680;DHT22;838;51.794;12.258;2024-01-30T12:12:35;11.30;1.00
1680;DHT22;838;51.794;12.258;2024-01-30T12:15:01;11.50;1.00
1680;DHT22;838;51.794;12.258;2024-01-30T12:17:31;11.50;1.00
1680;DHT22;838;51.794;12.258;2024-01-30T12:22:29;11.80;1.00
1680;DHT22;838;51.794;12.258;2024-01-30T12:24:55;12.00;1.00
1680;DHT22;838;51.794;12.258;2024-01-30T12:27:21;12.10;1.00
1680;DHT22;838;51.794;12.258;2024-01-30T12:29:47;12.20;1.00
1680;DHT22;838;51.794;12.258;2024-01-30T12:32:16;12.30;1.00
1680;DHT22;838;51.794;12.258;2024-01-30T12:34:42;12.20;1.00
1680;DHT22;838;51.794;12.258;2024-01-30T12:37:08;12.30;1.00
1680;DHT22;838;51.794;12.258;2024-01-30T12:39:35;12.30;1.00
1680;DHT22;838;51.794;12.258;2024-01-30T12:42:01;12.20;1.00
1680;DHT22;838;51.794;12.258;2024-01-30T12:44:27;12.10;1.00
1680;DHT22;838;51.794;12.258;2024-01-30T12:46:54;12.00;1.00
1680;DHT22;838;51.794;12.258;2024-01-30T12:49:20;12.10;1.00
1680;DHT22;838;51.794;12.258;2024-01-30T12:51:46;12.00;1.00
1680;DHT22;838;51.794;12.258;2024-01-30T12:54:13;12.10;1.00
1680;DHT22;838;51.794;12.258;2024-01-30T12:56:38;12.10;1.00
1680;DHT22;838;51.794;12.258;2024-01-30T12:59:04;12.20;1.00
1680;DHT22;838;51.794;12.258;2024-01-30T13:01:30;12.20;1.00
1680;DHT22;838;51.794;12.258;2024-01-30T13:03:56;12.10;1.00
1680;DHT22;838;51.794;12.258;2024-01-30T13:06:24;11.90;1.00
1680;DHT22;838;51.794;12.258;2024-01-30T13:08:49;12.00;1.00
1680;DHT22;838;51.794;12.258;2024-01-30T13:11:15;12.00;1.00
1680;DHT22;838;51.794;12.258;2024-01-30T13:13:41;12.00;1.00
1680;DHT22;838;51.794;12.258;2024-01-30T13:16:07;12.00;1.00
1680;DHT22;838;51.794;12.258;2024-01-30T13:18:32;11.90;1.00
1680;DHT22;838;51.794;12.258;2024-01-30T13:20:58;11.90;1.00
1680;DHT22;838;51.794;12.258;2024-01-30T13:23:24;11.90;1.00
1680;DHT22;838;51.794;12.258;2024-01-30T13:25:49;12.10;1.00
1680;DHT22;838;51.794;12.258;2024-01-30T13:28:15;12.00;1.00
1680;DHT22;838;51.794;12.258;2024-01-30T13:30:41;12.10;1.00
1680;DHT22;838;51.794;12.258;2024-01-30T13:33:07;12.20;1.00
1680;DHT22;838;51.794;12.258;2024-01-30T13:35:33;12.20;1.00
1680;DHT22;838;51.794;12.258;2024-01-30T13:37:59;12.40;1.00
1680;DHT22;838;51.794;12.258;2024-01-30T13:40:24;12.70;1.00
1680;DHT22;838;51.794;12.258;2024-01-30T13:42:50;12.60;1.00
1680;DHT22;838;51.794;12.258;2024-01-30T13:45:16;12.50;1.00
1680;DHT22;838;51.794;12.258;2024-01-30T13:47:44;12.60;1.00
1680;DHT22;838;51.794;12.258;2024-01-30T13:50:10;12.70;1.00
1680;DHT22;838;51.794;12.258;2024-01-30T13:52:42;12.80;1.00
1680;DHT22;838;51.794;12.258;2024-01-30T13:55:09;12.70;1.00
1680;DHT22;838;51.794;12.258;2024-01-30T13:57:36;12.70;1.00
1680;DHT22;838;51.794;12.258;2024-01-30T14:00:06;12.70;1.00
1680;DHT22;838;51.794;12.258;2024-01-30T14:02:32;12.70;1.00
1680;DHT22;838;51.794;12.258;2024-01-30T14:04:58;12.60;1.00
1680;DHT22;838;51.794;12.258;2024-01-30T14:07:24;12.40;1.00
1680;DHT22;838;51.794;12.258;2024-01-30T14:09:50;12.40;1.00
1680;DHT22;838;51.794;12.258;2024-01-30T14:12:15;12.40;1.00
1680;DHT22;838;51.794;12.258;2024-01-30T14:14:41;12.40;1.00
1680;DHT22;838;51.794;12.258;2024-01-30T14:17:07;12.30;1.00
1680;DHT22;838;51.794;12.258;2024-01-30T14:19:34;12.30;1.00
1680;DHT22;838;51.794;12.258;2024-01-30T14:22:01;12.20;1.00
1680;DHT22;838;51.794;12.258;2024-01-30T14:24:27;12.20;1.00
1680;DHT22;838;51.794;12.258;2024-01-30T14:26:53;12.20;1.00
1680;DHT22;838;51.794;12.258;2024-01-30T14:29:19;12.30;1.00
1680;DHT22;838;51.794;12.258;2024-01-30T14:31:45;12.20;1.00
1680;DHT22;838;51.794;12.258;2024-01-30T14:34:10;12.30;1.00
1680;DHT22;838;51.794;12.258;2024-01-30T14:36:39;12.30;1.00
1680;DHT22;838;51.794;12.258;2024-01-30T14:39:05;12.20;1.00
1680;DHT22;838;51.794;12.258;2024-01-30T14:41:32;12.10;1.00
1680;DHT22;838;51.794;12.258;2024-01-30T14:43:58;12.00;1.00
1680;DHT22;838;51.794;12.258;2024-01-30T14:46:24;11.90;1.00
1680;DHT22;838;51.794;12.258;2024-01-30T14:48:52;11.80;1.00
1680;DHT22;838;51.794;12.258;2024-01-30T14:51:18;11.90;1.00
1680;DHT22;838;51.794;12.258;2024-01-30T14:53:44;11.80;1.00
1680;DHT22;838;51.794;12.258;2024-01-30T14:56:10;11.70;1.00
1680;DHT22;838;51.794;12.258;2024-01-30T14:58:36;11.70;1.00
1680;DHT22;838;51.794;12.258;2024-01-30T15:01:02;11.60;1.00
1680;DHT22;838;51.794;12.258;2024-01-30T15:03:28;11.60;1.00
1680;DHT22;838;51.794;12.258;2024-01-30T15:05:57;11.60;1.00
1680;DHT22;838;51.794;12.258;2024-01-30T15:08:23;11.60;1.00
1680;DHT22;838;51.794;12.258;2024-01-30T15:10:49;11.50;1.00
1680;DHT22;838;51.794;12.258;2024-01-30T15:13:16;11.50;1.00
1680;DHT22;838;51.794;12.258;2024-01-30T15:15:42;11.50;1.00
1680;DHT22;838;51.794;12.258;2024-01-30T15:18:08;11.30;1.00
1680;DHT22;838;51.794;12.258;2024-01-30T15:20:36;11.30;1.00
1680;DHT22;838;51.794;12.258;2024-01-30T15:23:02;11.30;1.00
1680;DHT22;838;51.794;12.258;2024-01-30T15:25:28;11.20;1.00
1680;DHT22;838;51.794;12.258;2024-01-30T15:27:54;11.30;1.00
1680;DHT22;838;51.794;12.258;2024-01-30T15:30:20;11.30;1.00
1680;DHT22;838;51.794;12.258;2024-01-30T15:32:46;11.20;1.00
1680;DHT22;838;51.794;12.258;2024-01-30T15:35:12;11.00;1.00
1680;DHT22;838;51.794;12.258;2024-01-30T15:37:38;10.90;1.00
1680;DHT22;838;51.794;12.258;2024-01-30T15:40:04;10.90;1.00
1680;DHT22;838;51.794;12.258;2024-01-30T15:42:32;10.80;1.50
1680;DHT22;838;51.794;12.258;2024-01-30T15:44:58;10.70;2.40
1680;DHT22;838;51.794;12.258;2024-01-30T15:47:24;10.60;2.80
1680;DHT22;838;51.794;12.258;2024-01-30T15:49:50;10.70;2.60
1680;DHT22;838;51.794;12.258;2024-01-30T15:52:16;10.70;2.60
1680;DHT22;838;51.794;12.258;2024-01-30T15:54:46;10.70;2.00
1680;DHT22;838;51.794;12.258;2024-01-30T15:57:12;10.70;1.90
1680;DHT22;838;51.794;12.258;2024-01-30T15:59:38;10.70;2.20
1680;DHT22;838;51.794;12.258;2024-01-30T16:02:04;10.60;3.00
1680;DHT22;838;51.794;12.258;2024-01-30T16:04:30;10.60;2.80
1680;DHT22;838;51.794;12.258;2024-01-30T16:06:56;10.50;3.20
1680;DHT22;838;51.794;12.258;2024-01-30T16:09:25;10.40;4.10
1680;DHT22;838;51.794;12.258;2024-01-30T16:11:51;10.30;5.10
1680;DHT22;838;51.794;12.258;2024-01-30T16:14:17;10.30;5.70
1680;DHT22;838;51.794;12.258;2024-01-30T16:16:42;10.30;5.60